Tiempo atmosférico en la estación meteorológica de Briviesca, Burgos (730 m.)



Fecha
DESCASC
Temp. máxima en grados centígrados (hora)
DESCASC
Temp. mínima en grados centígrados (hora)
DESCASC
Temp. media en grados centígrados
DESCASC
Racha de viento máxima en m/sg (hora)
DESCASC
Velocidad máxima media en intervalos de 10 minutos(hora)
DESCASC
Precipitaciones diarias en mm
DESCASC
Precipitaciones de 00:00 a 06:00 en mm
DESCASC
Precipitaciones de 06:00 a 12:00 en mm
DESCASC
Precipitaciones de 12:00 a 18:00 en mm
DESCASC
Precipitaciones de 18:00 a 24:00 en mm
DESCASC
20-09-2018 30.9 (16:10) 14.9 (02:40) 22.9 9.17 (15:40) 5.56 (14:50) 0 0 0 0 0
19-09-2018 30 (18:00) 15.2 (02:30) 22.6 8.61 (19:40) 6.11 (19:40) 0 0 0 0 0
18-09-2018 27 (17:00) 13.8 (04:10) 20.4 8.06 (18:00) 5 (19:10) 1.2 0 1.2 0 0
17-09-2018 27.5 (15:40) 11.2 (07:00) 19.3 11.94 (17:20) 7.5 (17:20) 0 0 0 0 0
16-09-2018 28.9 (16:40) 11.1 (00:00) 20 9.72 (20:00) 6.39 (20:10) 0 0 0 0 0
15-09-2018 26.9 (17:30) 12.5 (00:00) 19.7 7.5 (18:10) 4.72 (18:20) 0 0 0 0 0
14-09-2018 26.5 (17:00) 11.4 (00:00) 18.9 8.61 (19:50) 5.83 (20:00) 0 0 0 0 0
13-09-2018 25.1 (17:10) 14.7 (00:00) 19.9 7.78 (18:50) 5.28 (19:30) 0 0 0 0 0
12-09-2018 28.8 (17:00) 11.6 (00:00) 20.2 9.17 (20:20) 6.39 (20:50) 0 0 0 0 0
11-09-2018 27 (16:20) 10.7 (00:00) 18.8 9.17 (17:30) 5.28 (18:10) 0 0 0 0 0
10-09-2018 24.6 (17:30) 13.2 (00:00) 18.9 7.5 (18:00) 4.72 (18:00) 0 0 0 0 0
09-09-2018 24 (15:30) 13.5 (00:00) 18.8 8.33 (16:20) 5.56 (16:30) 2.2 2.2 0 0 0
08-09-2018 25.8 (15:00) 10.4 (00:00) 18.1 12.5 (16:50) 7.22 (16:50) 3.2 0 0 3.2 0
07-09-2018 21.8 (15:30) 11.6 (00:00) 16.7 9.72 (15:10) 6.11 (17:30) 0.2 0.2 0 0 0
06-09-2018 21.8 (15:30) 14.2 (00:00) 18 7.78 (14:20) 5 (14:20) 0.2 0 0 0 0.2
05-09-2018 22 (17:20) 12.5 (00:00) 17.3 8.89 (17:40) 5.56 (17:50) 19.6 0 0 0 19.6
04-09-2018 24.5 (16:30) 11.8 (00:00) 18.2 7.78 (17:40) 5.56 (19:00) 1.4 1.4 0 0 0
03-09-2018 27.6 (15:50) 11.6 (00:00) 19.6 8.89 (16:00) 6.39 (18:00) 3.6 0 0 0 3.6
02-09-2018 32 (17:40) 11 (00:00) 21.5 8.33 (20:00) 6.11 (20:00) 0 0 0 0 0
01-09-2018 28.4 (17:40) 9.7 (00:00) 19 8.89 (14:30) 5 (19:50) 0 0 0 0 0
31-08-2018 26.2 (17:30) 9 (00:00) 17.6 8.06 (19:00) 5.28 (19:50) 0 0 0 0 0
30-08-2018 26.2 (16:30) 10.5 (00:00) 18.4 8.61 (17:30) 4.72 (19:00) 0 0 0 0 0
29-08-2018 26.1 (15:20) 11.7 (00:00) 18.9 9.44 (18:40) 6.67 (18:50) 0 0 0 0 0
28-08-2018 33.9 (16:00) 13 (00:00) 23.5 12.5 (16:30) 7.5 (16:30) 0 0 0 0 0
27-08-2018 31.9 (17:50) 10.9 (00:00) 21.4 6.94 (19:00) 5 (19:00) 0 0 0 0 0
26-08-2018 29.8 (18:20) 7.5 (00:00) 18.6 7.78 (20:20) 5.56 (20:20) 0 0 0 0 0
25-08-2018 22.8 (16:30) 10.4 (00:00) 16.6 11.11 (14:10) 4.72 (20:10) 0 0 0 0 0
24-08-2018 24.3 (17:00) 11.2 (00:00) 17.7 7.78 (17:10) 4.72 (17:50) 0 0 0 0 0

Gráficas

Temp. máximas Temp. mínimas Temp. medias Precipitaciones Rachas de viento máximas Velocidades máximas media en intervalos de 10 minutos

Datos horarios

Fecha y hora oficial Temperatura (ºC) Velocidad del viento (km/h) Dirección del viento Racha (km/h) Dirección de racha Precipitación (mm) Presión (hPa) Tendencia (hPa) Humedad (%)
2018-09-22 23:00:00 18.6 0 Calma 14 Sudeste 0 -- -- 74
2018-09-22 22:00:00 20.6 5 Sudeste 21 Este 0 -- -- 69
2018-09-22 21:00:00 22.1 17 Este 31 Este 0 -- -- 62
2018-09-22 20:00:00 25.1 19 Este 33 Este 0 -- -- 52
2018-09-22 19:00:00 28.6 12 Este 19 Este 0 -- -- 37
2018-09-22 18:00:00 29.5 4 Norte 21 Norte 0 -- -- 32
2018-09-22 17:00:00 29.8 8 Nordeste 19 Nordeste 0 -- -- 32
2018-09-22 16:00:00 29.6 7 Sudoeste 19 Oeste 0 -- -- 31
2018-09-22 15:00:00 28.8 8 Noroeste 24 Sudoeste 0 -- -- 34
2018-09-22 14:00:00 27.4 8 Norte 17 Noroeste 0 -- -- 36
2018-09-22 13:00:00 24.6 5 Nordeste 12 Noroeste 0 -- -- 52
2018-09-22 12:00:00 20.9 6 Nordeste 10 Este 0 -- -- 68
2018-09-22 11:00:00 17.4 0 Calma 6 Sudoeste 0 -- -- 84
2018-09-22 10:00:00 14.5 2 Sur 5 Sudoeste 0 -- -- 100
2018-09-22 09:00:00 12.8 0 Calma 0 Calma 0 -- -- 100
2018-09-22 08:00:00 11.1 0 Calma 5 Sudoeste 0 -- -- 100
2018-09-22 07:00:00 12 4 Sudoeste 5 Sudoeste 0 -- -- 99
2018-09-22 06:00:00 11.7 4 Sudoeste 5 Sudoeste 0 -- -- 98
2018-09-22 05:00:00 12.6 2 Oeste 14 Sudeste 0 -- -- 97
2018-09-22 04:00:00 13.2 10 Sudeste 14 Sudeste 0 -- -- 97
2018-09-22 03:00:00 13.3 4 Sudeste 8 Sudeste 0 -- -- 98
2018-09-22 02:00:00 13 0 Calma 6 Sudeste 0 -- -- 95
2018-09-22 01:00:00 14.2 5 Sur 20 Sudeste 0 -- -- 92
2018-09-22 00:00:00 14.7 9 Sudeste 13 Sudeste 0 -- -- 90
2018-09-21 23:00:00 15.6 8 Este 17 Este 0 -- -- 89
2018-09-21 22:00:00 16.3 9 Este 19 Este 0 -- -- 84
2018-09-21 21:00:00 17.8 12 Este 22 Este 0 -- -- 79
2018-09-21 20:00:00 20 14 Este 30 Este 0 -- -- 68
2018-09-21 19:00:00 22.5 15 Este 28 Este 0 -- -- 57
2018-09-21 18:00:00 25.6 9 Nordeste 19 Nordeste 0 -- -- 39
2018-09-21 17:00:00 26.5 6 Sudoeste 15 Noroeste 0 -- -- 33
2018-09-21 16:00:00 26 7 Noroeste 15 Noroeste 0 -- -- 34
2018-09-21 15:00:00 25 6 Nordeste 15 Norte 0 -- -- 37
2018-09-21 14:00:00 23.9 6 Noroeste 14 Noroeste 0 -- -- 40
2018-09-21 13:00:00 23.3 4 Noroeste 18 Norte 0 -- -- 41
2018-09-21 12:00:00 21 4 Nordeste 12 Norte 0 -- -- 49
2018-09-21 11:00:00 20.1 6 Norte 13 Norte 0 -- -- 53
2018-09-21 10:00:00 16.1 0 Calma 7 Norte 0 -- -- 70
2018-09-21 09:00:00 12.5 2 Norte 4 Norte 0 -- -- 90
2018-09-21 08:00:00 11 2 Sur 6 Este 0 -- -- 90
2018-09-21 07:00:00 11.3 0 Calma 8 Sudoeste 0 -- -- 86
2018-09-21 06:00:00 13.3 6 Sudoeste 10 Sudeste 0 -- -- 81
2018-09-21 05:00:00 13.5 2 Oeste 11 Sudoeste 0 -- -- 80
2018-09-21 04:00:00 14.2 8 Sudoeste 11 Oeste 0 -- -- 78
2018-09-21 03:00:00 14.9 5 Sudoeste 9 Sudoeste 0 -- -- 74
2018-09-21 02:00:00 14.6 2 Sur 10 Oeste 0 -- -- 77
2018-09-21 01:00:00 15.7 0 Calma 6 Oeste 0 -- -- 70
2018-09-21 00:00:00 17.4 3 Sur 14 Sur 0 -- -- 63
2018-09-20 23:00:00 19.7 8 Sur 16 Sur 0 -- -- 55
2018-09-20 22:00:00 19.9 5 Oeste 8 Oeste 0 -- -- 54
2018-09-20 21:00:00 22.1 0 Calma 8 Sudoeste 0 -- -- 46
2018-09-20 20:00:00 26.4 8 Oeste 22 Oeste 0 -- -- 35
2018-09-20 19:00:00 29.3 15 Oeste 28 Sudoeste 0 -- -- 30
2018-09-20 18:00:00 30.2 17 Oeste 32 Sudoeste 0 -- -- 29
2018-09-20 17:00:00 30.5 17 Sudoeste 32 Sudoeste 0 -- -- 31
2018-09-20 16:00:00 30.7 16 Sur 33 Sudoeste 0 -- -- 29
2018-09-20 15:00:00 29.8 19 Oeste 32 Oeste 0 -- -- 32
2018-09-20 14:00:00 26.7 7 Norte 14 Nordeste 0 -- -- 55
2018-09-20 13:00:00 23.3 5 Este 9 Norte 0 -- -- 66
2018-09-20 12:00:00 19.7 4 Sudeste 7 Este 0 -- -- 81
2018-09-20 11:00:00 16.9 0 Calma 5 Nordeste 0 -- -- 93
2018-09-20 10:00:00 16.1 0 Calma -- -- 0 -- -- 97
2018-09-20 09:00:00 15.8 0 Calma 0 Calma 0 -- -- 98
2018-09-20 08:00:00 15.9 0 Calma -- -- 0 -- -- 99
2018-09-20 07:00:00 16 0 Calma 5 Este 0 -- -- 99
2018-09-20 06:00:00 16.3 3 Este 6 Sudeste 0 -- -- 98
2018-09-20 05:00:00 16 2 Nordeste 12 Este 0 -- -- 97
2018-09-20 04:00:00 15.7 3 Sudeste 17 Sudeste 0 -- -- 98
2018-09-20 03:00:00 15.3 6 Sudeste 15 Sudeste 0 -- -- 98
2018-09-20 02:00:00 16 4 Sudoeste 13 Sudeste 0 -- -- 91
2018-09-20 01:00:00 16.7 2 Sudoeste 14 Sudeste 0 -- -- 92
2018-09-20 00:00:00 17.3 0 Calma 18 Este 0 -- -- 89
2018-09-19 23:00:00 18.4 7 Este 17 Sudeste 0 -- -- 84
2018-09-19 22:00:00 19.3 8 Sudeste 12 Sudeste 0 -- -- 82
2018-09-19 21:00:00 20.8 2 Sudoeste 29 Nordeste 0 -- -- 75
2018-09-19 20:00:00 24.2 16 Nordeste 31 Este 0 -- -- 65
2018-09-19 19:00:00 28.2 10 Sudeste 18 Este 0 -- -- 43
2018-09-19 18:00:00 30 8 Oeste 24 Sudoeste 0 -- -- 30
2018-09-19 17:00:00 28.4 5 Sur 17 Oeste 0 -- -- 36
2018-09-19 16:00:00 27.6 7 Nordeste 14 Noroeste 0 -- -- 40
2018-09-19 15:00:00 28.1 5 Nordeste 15 Norte 0 -- -- 42
2018-09-19 14:00:00 27.2 7 Este 17 Sur 0 -- -- 46
2018-09-19 13:00:00 24.7 3 Sudoeste 12 Sur 0 -- -- 56
2018-09-19 12:00:00 21.8 5 Sudeste 12 Este 0 -- -- 66
2018-09-19 11:00:00 19 6 Sudoeste 13 Sur 0 -- -- 82
2018-09-19 10:00:00 17.3 3 Sur 9 Sur 0 -- -- 89
2018-09-19 09:00:00 16.8 0 Calma -- -- 0 -- -- 93
2018-09-19 08:00:00 16.7 0 Calma -- -- 0 -- -- 94
2018-09-19 07:00:00 16.7 0 Calma -- -- 0 -- -- 93
2018-09-19 06:00:00 17.1 0 Calma 9 Sudeste 0 -- -- 93
2018-09-19 05:00:00 16.5 0 Calma 4 Norte 0 -- -- 98
2018-09-19 04:00:00 16 0 Calma 10 Sudeste 0 -- -- 98
2018-09-19 03:00:00 15.6 0 Calma 6 Sudoeste 0 -- -- 99
2018-09-19 02:00:00 15.5 3 Sudoeste 7 Sudoeste 0 -- -- 97
2018-09-19 01:00:00 16.2 4 Sur 14 Sudeste 0 -- -- 95
2018-09-19 00:00:00 17 10 Sudeste 15 Sudeste 0 -- -- 94
2018-09-18 23:00:00 17.6 7 Este 10 Este 0 -- -- 91
2018-09-18 22:00:00 18.4 2 Sudeste 15 Nordeste 0 -- -- 87
2018-09-18 21:00:00 20.5 10 Nordeste 23 Nordeste 0 -- -- 80
2018-09-18 20:00:00 23.7 11 Este 26 Sudeste 0 -- -- 57
2018-09-18 19:00:00 25.6 17 Este 25 Este 0 -- -- 51
2018-09-18 18:00:00 26.8 14 Este 29 Sudeste 0 -- -- 50
2018-09-18 17:00:00 27 13 Este 22 Este 0 -- -- 50
2018-09-18 16:00:00 26.3 10 Este 22 Este 0 -- -- 52
2018-09-18 15:00:00 26.2 6 Nordeste 15 Este 0 -- -- 52
2018-09-18 14:00:00 24.5 4 Sudeste 24 Este 0 -- -- 60
2018-09-18 13:00:00 22.6 13 Este 28 Este 0 -- -- 68
2018-09-18 12:00:00 20.5 15 Este 25 Este 0 -- -- 78
2018-09-18 11:00:00 18.6 9 Este 22 Este 0 -- -- 87
2018-09-18 10:00:00 17.8 6 Sudeste 15 Sudeste 0 -- -- 93
2018-09-18 09:00:00 16.9 2 Este 10 Sudeste 0 -- -- 95
2018-09-18 08:00:00 16.6 0 Calma 12 Sudeste 1.2 -- -- 94
2018-09-18 07:00:00 16.3 0 Calma -- -- 0 -- -- 93
2018-09-18 06:00:00 15.6 0 Calma 8 Sudoeste 0 -- -- 93
2018-09-18 05:00:00 15 3 Sudoeste 7 Sur 0 -- -- 91
2018-09-18 04:00:00 13.9 0 Calma 6 Oeste 0 -- -- 94
2018-09-18 03:00:00 14.2 0 Calma 6 Este 0 -- -- 91
2018-09-18 02:00:00 15.8 2 Sudoeste 5 Sudoeste 0 -- -- 88
2018-09-18 01:00:00 16.3 0 Calma 9 Sudoeste 0 -- -- 85
2018-09-18 00:00:00 17.5 7 Sur 20 Sudeste 0 -- -- 78
2018-09-17 23:00:00 18.5 13 Sudeste 34 Este 0 -- -- 72
2018-09-17 22:00:00 20.4 19 Este 32 Este 0 -- -- 61
2018-09-17 21:00:00 19.2 11 Nordeste 34 Este 0 -- -- 73
2018-09-17 20:00:00 21.1 20 Este 33 Este 0 -- -- 64
2018-09-17 19:00:00 23.1 7 Sur 32 Sudeste 0 -- -- 53
2018-09-17 18:00:00 24.6 22 Sudeste 43 Sudeste 0 -- -- 47
2018-09-17 17:00:00 26.8 23 Este 40 Sudeste 0 -- -- 43
2018-09-17 16:00:00 27.3 21 Sudeste 32 Este 0 -- -- 50
2018-09-17 15:00:00 26.6 14 Sudeste 24 Este 0 -- -- 53
2018-09-17 14:00:00 25.4 10 Este 22 Sudeste 0 -- -- 59
2018-09-17 13:00:00 23.4 6 Sudeste 15 Este 0 -- -- 65
2018-09-17 12:00:00 20.4 4 Este 14 Sudeste 0 -- -- 77
2018-09-17 11:00:00 17.8 9 Sudeste 21 Sudeste 0 -- -- 88
2018-09-17 10:00:00 16.2 9 Sudeste 16 Este 0 -- -- 99
2018-09-17 09:00:00 12.7 0 Calma 3 Sudoeste 0 -- -- 100
2018-09-17 08:00:00 11.5 0 Calma 5 Sudoeste 0 -- -- 99
2018-09-17 07:00:00 11.2 0 Calma 3 Oeste 0 -- -- 98
2018-09-17 06:00:00 11.9 0 Calma 4 Sudoeste 0 -- -- 96
2018-09-17 05:00:00 13.4 2 Sudoeste 9 Sudoeste 0 -- -- 96
2018-09-17 04:00:00 14 3 Sudoeste 7 Sudoeste 0 -- -- 97
2018-09-17 03:00:00 14.8 4 Sudoeste 7 Sudoeste 0 -- -- 95
2018-09-17 02:00:00 15 0 Calma 5 Sudoeste 0 -- -- 94
2018-09-17 01:00:00 16.2 0 Calma 12 Sudeste 0 -- -- 89
2018-09-17 00:00:00 17.3 4 Sudeste 11 Sudeste 0 -- -- 88
2018-09-16 23:00:00 18 9 Sudeste 18 Sudeste 0 -- -- 84
2018-09-16 22:00:00 18.8 9 Sudeste 14 Sudeste 0 -- -- 83
2018-09-16 21:00:00 20.4 9 Nordeste 31 Nordeste 0 -- -- 76
2018-09-16 20:00:00 23.8 21 Nordeste 35 Nordeste 0 -- -- 64
2018-09-16 19:00:00 26.6 17 Sudeste 27 Sudeste 0 -- -- 46
2018-09-16 18:00:00 27.2 14 Sudeste 24 Este 0 -- -- 46
2018-09-16 17:00:00 28.8 13 Este 23 Este 0 -- -- 41
2018-09-16 16:00:00 28.4 9 Este 21 Este 0 -- -- 44
2018-09-16 15:00:00 28.3 9 Norte 17 Norte 0 -- -- 45
2018-09-16 14:00:00 26.7 8 Nordeste 17 Este 0 -- -- 49
2018-09-16 13:00:00 24.2 8 Nordeste 14 Nordeste 0 -- -- 57
2018-09-16 12:00:00 22.5 4 Nordeste 9 Sudeste 0 -- -- 62
2018-09-16 11:00:00 20 6 Sudeste 12 Sudeste 0 -- -- 72
2018-09-16 10:00:00 16.2 0 Calma 7 Sudoeste 0 -- -- 84
2018-09-16 09:00:00 12.7 2 Sudoeste 7 Sudoeste 0 -- -- 96
2018-09-16 08:00:00 11.6 0 Calma 9 Sudoeste 0 -- -- 96
2018-09-16 07:00:00 11.9 0 Calma 9 Sudeste 0 -- -- 94
2018-09-16 06:00:00 11.4 4 Sudoeste 10 Sudoeste 0 -- -- 97
2018-09-16 05:00:00 11.8 0 Calma 7 Sudoeste 0 -- -- 93
2018-09-16 04:00:00 12.8 3 Sur 9 Sudoeste 0 -- -- 91
2018-09-16 03:00:00 13.8 5 Sur 11 Sur 0 -- -- 89
2018-09-16 02:00:00 13.8 0 Calma 5 Sudoeste 0 -- -- 88
2018-09-16 01:00:00 15.2 4 Sudoeste 7 Oeste 0 -- -- 84
2018-09-16 00:00:00 16.1 0 Calma 7 Sudoeste 0 -- -- 78
2018-09-15 23:00:00 18.9 5 Sudeste 20 Sudeste 0 -- -- 69
2018-09-15 22:00:00 20.3 13 Sudeste 24 Este 0 -- -- 63
2018-09-15 21:00:00 21.3 12 Sudeste 22 Este 0 -- -- 58
2018-09-15 20:00:00 24.1 15 Este 26 Este 0 -- -- 53
2018-09-15 19:00:00 26 13 Sudeste 27 Este 0 -- -- 46
2018-09-15 18:00:00 26.8 15 Este 26 Este 0 -- -- 43
2018-09-15 17:00:00 26.7 12 Este 22 Este 0 -- -- 41
2018-09-15 16:00:00 26.5 12 Este 22 Este 0 -- -- 42
2018-09-15 15:00:00 25 8 Sudeste 19 Nordeste 0 -- -- 47
2018-09-15 14:00:00 23.5 9 Este 19 Este 0 -- -- 52
2018-09-15 13:00:00 21.9 8 Este 21 Este 0 -- -- 56
2018-09-15 12:00:00 20.4 9 Este 21 Este 0 -- -- 62
2018-09-15 11:00:00 18 9 Este 15 Este 0 -- -- 71
2018-09-15 10:00:00 16.1 10 Este 14 Este 0 -- -- 83
2018-09-15 09:00:00 13.9 4 Sudeste 14 Sudeste 0 -- -- 93
2018-09-15 08:00:00 12.6 7 Sudeste 14 Sudeste 0 -- -- 95
2018-09-15 07:00:00 12.5 8 Sudeste 14 Sudeste 0 -- -- 93
2018-09-15 06:00:00 12.8 10 Sudeste 17 Sudeste 0 -- -- 92
2018-09-15 05:00:00 13 10 Sudeste 17 Sudeste 0 -- -- 93
2018-09-15 04:00:00 12.9 9 Este 13 Este 0 -- -- 93
2018-09-15 03:00:00 13.4 10 Este 17 Sudeste 0 -- -- 92
2018-09-15 02:00:00 14.8 7 Este 16 Este 0 -- -- 88
2018-09-15 01:00:00 15.4 8 Este 18 Este 0 -- -- 87
2018-09-15 00:00:00 16 12 Este 22 Este 0 -- -- 87
2018-09-14 23:00:00 15.9 15 Este 24 Este 0 -- -- 88
2018-09-14 22:00:00 16.7 16 Este 27 Este 0 -- -- 86
2018-09-14 21:00:00 18 12 Este 27 Este 0 -- -- 80
2018-09-14 20:00:00 20.8 21 Este 31 Este 0 -- -- 69
2018-09-14 19:00:00 24.2 19 Este 28 Este 0 -- -- 58
2018-09-14 18:00:00 25.7 12 Nordeste 22 Nordeste 0 -- -- 51
2018-09-14 17:00:00 26.5 8 Nordeste 19 Nordeste 0 -- -- 46
2018-09-14 16:00:00 25.2 5 Nordeste 15 Norte 0 -- -- 49
2018-09-14 15:00:00 24.1 8 Norte 18 Nordeste 0 -- -- 52
2018-09-14 14:00:00 22.6 8 Este 16 Este 0 -- -- 59
2018-09-14 13:00:00 20.6 6 Este 14 Este 0 -- -- 66
2018-09-14 12:00:00 19.1 7 Nordeste 13 Nordeste 0 -- -- 71
2018-09-14 11:00:00 16.6 4 Norte 10 Norte 0 -- -- 81
2018-09-14 10:00:00 15.9 3 Nordeste 6 Norte 0 -- -- 83
2018-09-14 09:00:00 14 4 Nordeste 9 Norte 0 -- -- 94
2018-09-14 08:00:00 13.2 0 Calma 10 Sudeste 0 -- -- 98
2018-09-14 07:00:00 11.8 0 Calma 3 Oeste 0 -- -- 99
2018-09-14 06:00:00 11.4 2 Oeste 10 Sudeste 0 -- -- 97
2018-09-14 05:00:00 12.1 4 Sur 14 Sudeste 0 -- -- 97
2018-09-14 04:00:00 12.7 7 Sudeste 13 Sudeste 0 -- -- 98
2018-09-14 03:00:00 12.8 3 Oeste 13 Sudeste 0 -- -- 94
2018-09-14 02:00:00 13.9 9 Sudeste 19 Sudeste 0 -- -- 94
2018-09-14 01:00:00 14.2 9 Sudeste 19 Sudeste 0 -- -- 92
2018-09-14 00:00:00 14.7 13 Sudeste 23 Sudeste 0 -- -- 89
2018-09-13 23:00:00 15.3 11 Sudeste 22 Este 0 -- -- 85
2018-09-13 22:00:00 16.5 13 Sudeste 26 Este 0 -- -- 78
2018-09-13 21:00:00 18.2 15 Este 22 Este 0 -- -- 72
2018-09-13 20:00:00 21 18 Este 27 Este 0 -- -- 62
2018-09-13 19:00:00 23.6 16 Este 28 Este 0 -- -- 53
2018-09-13 18:00:00 24.8 11 Nordeste 18 Nordeste 0 -- -- 47
2018-09-13 17:00:00 24.8 9 Norte 18 Nordeste 0 -- -- 46
2018-09-13 16:00:00 23.8 5 Nordeste 16 Nordeste 0 -- -- 50
2018-09-13 15:00:00 22.7 6 Norte 19 Nordeste 0 -- -- 58
2018-09-13 14:00:00 21.4 8 Sudeste 17 Nordeste 0 -- -- 61
2018-09-13 13:00:00 19.5 3 Este 23 Nordeste 0 -- -- 69
2018-09-13 12:00:00 18.1 7 Este 14 Este 0 -- -- 77
2018-09-13 11:00:00 17.9 7 Nordeste 15 Este 0 -- -- 78
2018-09-13 10:00:00 16.8 4 Este 9 Este 0 -- -- 80
2018-09-13 09:00:00 16.1 8 Nordeste 11 Nordeste 0 -- -- 87
2018-09-13 08:00:00 16 7 Nordeste 10 Nordeste 0 -- -- 88
2018-09-13 07:00:00 16.2 5 Este 9 Este 0 -- -- 89
2018-09-13 06:00:00 16.3 6 Este 9 Este 0 -- -- 89
2018-09-13 05:00:00 16.4 3 Este 6 Sudeste 0 -- -- 91
2018-09-13 04:00:00 16.3 5 Sudeste 11 Este 0 -- -- 91
2018-09-13 03:00:00 16.1 10 Este 15 Este 0 -- -- 92
2018-09-13 02:00:00 15.4 11 Sudeste 16 Sudeste 0 -- -- 93
2018-09-13 01:00:00 15.7 13 Este 21 Sudeste 0 -- -- 93
2018-09-13 00:00:00 16.3 13 Este 17 Este 0 -- -- 92
2018-09-12 23:00:00 16.8 9 Sudeste 18 Este 0 -- -- 91
2018-09-12 22:00:00 18 15 Este 30 Este 0 -- -- 87
2018-09-12 21:00:00 19.7 23 Este 33 Este 0 -- -- 81
2018-09-12 20:00:00 23.6 22 Este 32 Este 0 -- -- 66
2018-09-12 19:00:00 26.5 17 Este 24 Este 0 -- -- 47
2018-09-12 18:00:00 27.3 10 Este 30 Nordeste 0 -- -- 43
2018-09-12 17:00:00 28.8 5 Sur 11 Nordeste 0 -- -- 37
2018-09-12 16:00:00 27.7 8 Este 16 Norte 0 -- -- 42
2018-09-12 15:00:00 26.9 5 Norte 15 Nordeste 0 -- -- 45
2018-09-12 14:00:00 25.8 7 Nordeste 13 Nordeste 0 -- -- 50
2018-09-12 13:00:00 23.9 4 Nordeste 12 Norte 0 -- -- 58
2018-09-12 12:00:00 21.4 4 Norte 9 Noroeste 0 -- -- 63
2018-09-12 11:00:00 17.3 0 Calma 8 Sudeste 0 -- -- 78
2018-09-12 10:00:00 14.6 4 Sudoeste 8 Sudoeste 0 -- -- 87
2018-09-12 09:00:00 12.6 4 Sudoeste 10 Sudoeste 0 -- -- 92
2018-09-12 08:00:00 11.7 4 Sur 12 Sudeste 0 -- -- 93
2018-09-12 07:00:00 11.8 6 Sudoeste 12 Sudoeste 0 -- -- 92
2018-09-12 06:00:00 11.8 3 Sudoeste 13 Sur 0 -- -- 92
2018-09-12 05:00:00 12.5 4 Sur 12 Sur 0 -- -- 91
2018-09-12 04:00:00 12.4 3 Sur 11 Sudoeste 0 -- -- 92
2018-09-12 03:00:00 12.7 0 Calma 13 Sur 0 -- -- 90
2018-09-12 02:00:00 13.2 3 Sudoeste 12 Sur 0 -- -- 91
2018-09-12 01:00:00 14.2 9 Sur 19 Sudoeste 0 -- -- 86
2018-09-12 00:00:00 14.9 7 Sur 14 Sur 0 -- -- 84
2018-09-11 23:00:00 15.5 4 Sur 11 Sur 0 -- -- 83
2018-09-11 22:00:00 17.5 2 Sur 17 Sudeste 0 -- -- 73
2018-09-11 21:00:00 19.2 6 Sur 14 Sudoeste 0 -- -- 67
2018-09-11 20:00:00 22.5 9 Sudoeste 20 Sudoeste 0 -- -- 56
2018-09-11 19:00:00 24.6 10 Sur 33 Sur 0 -- -- 49
2018-09-11 18:00:00 26.1 17 Sudeste 33 Este 0 -- -- 50
2018-09-11 17:00:00 26.8 17 Este 32 Este 0 -- -- 38
2018-09-11 16:00:00 26.9 14 Nordeste 27 Este 0 -- -- 39
2018-09-11 15:00:00 26.5 14 Este 23 Este 0 -- -- 48
2018-09-11 14:00:00 25.5 7 Norte 18 Nordeste 0 -- -- 49
2018-09-11 13:00:00 22.9 5 Norte 13 Noroeste 0 -- -- 63
2018-09-11 12:00:00 20.5 6 Norte 12 Norte 0 -- -- 78
2018-09-11 11:00:00 18.9 0 Calma 8 Nordeste 0 -- -- 81
2018-09-11 10:00:00 15.1 3 Sur 10 Sudoeste 0 -- -- 91
2018-09-11 09:00:00 12 3 Sur 8 Sur 0 -- -- 100
2018-09-11 08:00:00 10.7 4 Sudoeste 8 Sudoeste 0 -- -- 98
2018-09-11 07:00:00 11.5 4 Sur 9 Oeste 0 -- -- 99
2018-09-11 06:00:00 11.5 2 Oeste 8 Oeste 0 -- -- 99
2018-09-11 05:00:00 12.1 3 Sur 7 Sudeste 0 -- -- 98
2018-09-11 04:00:00 12.2 0 Calma 8 Sudeste 0 -- -- 97
2018-09-11 03:00:00 13.2 3 Sur 12 Sur 0 -- -- 96
2018-09-11 02:00:00 13.9 4 Sur 11 Sur 0 -- -- 95
2018-09-11 01:00:00 14.5 2 Sur 9 Sudeste 0 -- -- 93
2018-09-11 00:00:00 15.5 5 Sur 9 Sur 0 -- -- 91
2018-09-10 23:00:00 16.3 3 Sur 18 Este 0 -- -- 88
2018-09-10 22:00:00 18 15 Este 21 Sudeste 0 -- -- 83
2018-09-10 21:00:00 19.3 12 Este 17 Este 0 -- -- 76
2018-09-10 20:00:00 22.4 12 Este 22 Este 0 -- -- 65
2018-09-10 19:00:00 23.9 15 Este 24 Nordeste 0 -- -- 58
2018-09-10 18:00:00 24.5 17 Este 27 Nordeste 0 -- -- 55
2018-09-10 17:00:00 24.1 13 Este 26 Nordeste 0 -- -- 57
2018-09-10 16:00:00 22.8 8 Este 23 Nordeste 0 -- -- 58
2018-09-10 15:00:00 21.8 10 Este 18 Este 0 -- -- 65
2018-09-10 14:00:00 20.2 9 Nordeste 23 Nordeste 0 -- -- 67
2018-09-10 13:00:00 18.8 10 Nordeste 23 Nordeste 0 -- -- 72
2018-09-10 12:00:00 18.1 15 Nordeste 21 Este 0 -- -- 75
2018-09-10 11:00:00 17.9 12 Nordeste 19 Este 0 -- -- 80
2018-09-10 10:00:00 16.8 9 Este 17 Este 0 -- -- 91
2018-09-10 09:00:00 15.7 9 Este 15 Sudeste 0 -- -- 95
2018-09-10 08:00:00 15.3 3 Este 9 Este 0 -- -- 96
2018-09-10 07:00:00 15.4 5 Sudeste 10 Sudeste 0 -- -- 96
2018-09-10 06:00:00 15 6 Sudeste 11 Sudeste 0 -- -- 99
2018-09-10 05:00:00 13.8 2 Sudoeste 9 Este 0 -- -- 99
2018-09-10 04:00:00 13.3 3 Sudeste 9 Este 0 -- -- 99
2018-09-10 03:00:00 14 0 Calma 4 Sudoeste 0 -- -- 97
2018-09-10 02:00:00 14.4 0 Calma 13 Sudeste 0 -- -- 98
2018-09-10 01:00:00 15.2 5 Sudeste 14 Este 0 -- -- 95
2018-09-10 00:00:00 15.7 9 Sudeste 16 Sudeste 0 -- -- 95
2018-09-09 23:00:00 16 10 Sudeste 16 Sudeste 0 -- -- 94
2018-09-09 22:00:00 16.7 12 Este 18 Este 0 -- -- 90
2018-09-09 21:00:00 17.2 10 Este 14 Este 0 -- -- 88
2018-09-09 20:00:00 19.4 2 Noroeste 16 Norte 0 -- -- 73
2018-09-09 19:00:00 19.8 13 Nordeste 21 Nordeste 0 -- -- 74
2018-09-09 18:00:00 18 3 Nordeste 15 Nordeste 0 -- -- 69
2018-09-09 17:00:00 17.8 10 Norte 30 Nordeste 0 -- -- 77
2018-09-09 16:00:00 23.4 7 Nordeste 15 Este 0 -- -- 54
2018-09-09 15:00:00 22.8 6 Nordeste 22 Norte 0 -- -- 63
2018-09-09 14:00:00 21.7 3 Nordeste 13 Este 0 -- -- 71
2018-09-09 13:00:00 19.3 3 Noroeste 10 Oeste 0 -- -- 80
2018-09-09 12:00:00 18 6 Nordeste 13 Nordeste 0 -- -- 84
2018-09-09 11:00:00 17.4 4 Nordeste 8 Este 0 -- -- 86
2018-09-09 10:00:00 15.2 3 Sudeste 8 Sudoeste 0 -- -- 93
2018-09-09 09:00:00 14.9 0 Calma 5 Sudoeste 0 -- -- 100
2018-09-09 08:00:00 13.5 0 Calma 8 Este 0 -- -- 99
2018-09-09 07:00:00 13.9 2 Sudoeste 7 Sudoeste 0 -- -- 98
2018-09-09 06:00:00 14.2 0 Calma 12 Sur 0 -- -- 97
2018-09-09 05:00:00 15.1 3 Sur 10 Sudoeste 0 -- -- 98
2018-09-09 04:00:00 15.3 3 Sudeste 11 Sudeste 0.4 -- -- 97
2018-09-09 03:00:00 15.3 2 Este 10 Oeste 1.2 -- -- 99
2018-09-09 02:00:00 15.5 3 Noroeste 17 Sudoeste 0.6 -- -- 95
2018-09-09 01:00:00 15.5 0 Calma 5 Sudoeste 0 -- -- 96
2018-09-09 00:00:00 15.4 3 Sudoeste 5 Sudoeste 0 -- -- 94
2018-09-08 23:00:00 15.4 0 Calma 8 Nordeste 0 -- -- 94
2018-09-08 22:00:00 15.7 5 Nordeste 8 Nordeste 0 -- -- 90
2018-09-08 21:00:00 17.1 4 Sur 16 Sur 0 -- -- 79
2018-09-08 20:00:00 19 8 Sudeste 24 Sudeste 0 -- -- 74
2018-09-08 19:00:00 20.6 13 Sudeste 30 Este 0 -- -- 71
2018-09-08 18:00:00 18.2 5 Nordeste 32 Sudoeste 1.8 -- -- 84
2018-09-08 17:00:00 16 25 Sudoeste 45 Sudoeste 1.4 -- -- 86
2018-09-08 16:00:00 22.9 15 Este 27 Sudeste 0 -- -- 60
2018-09-08 15:00:00 25.8 12 Este 24 Este 0 -- -- 47
2018-09-08 14:00:00 24.2 10 Este 19 Este 0 -- -- 54
2018-09-08 13:00:00 22.2 6 Nordeste 14 Este 0 -- -- 61
2018-09-08 12:00:00 20.6 6 Sudeste 22 Este 0 -- -- 67
2018-09-08 11:00:00 17.3 5 Norte 12 Este 0 -- -- 85
2018-09-08 10:00:00 14 5 Norte 6 Norte 0 -- -- 96
2018-09-08 09:00:00 12.3 4 Sur 12 Sur 0 -- -- 100
2018-09-08 08:00:00 10.6 0 Calma 6 Sudoeste 0 -- -- 98
2018-09-08 07:00:00 11.3 3 Sur 10 Sudoeste 0 -- -- 98
2018-09-08 06:00:00 11.2 5 Sur 10 Sudoeste 0 -- -- 99
2018-09-08 05:00:00 11.2 0 Calma 8 Sudeste 0 -- -- 98
2018-09-08 04:00:00 11.9 2 Sur 10 Sur 0 -- -- 96
2018-09-08 03:00:00 12.5 3 Sur 13 Sudeste 0 -- -- 95
2018-09-08 02:00:00 12.7 5 Sur 11 Sudeste 0 -- -- 96
2018-09-08 01:00:00 12.9 3 Sur 8 Sudoeste 0 -- -- 94
2018-09-08 00:00:00 13.7 3 Sudeste 11 Sur 0 -- -- 90
2018-09-07 23:00:00 14.5 4 Sur 16 Nordeste 0 -- -- 87
2018-09-07 22:00:00 15.5 7 Nordeste 23 Este 0 -- -- 84
2018-09-07 21:00:00 16.8 16 Este 27 Este 0 -- -- 79
2018-09-07 20:00:00 18.8 18 Nordeste 29 Nordeste 0 -- -- 69
2018-09-07 19:00:00 20.5 16 Nordeste 27 Este 0 -- -- 59
2018-09-07 18:00:00 21.5 17 Este 33 Nordeste 0 -- -- 57
2018-09-07 17:00:00 21.6 16 Este 32 Este 0 -- -- 56
2018-09-07 16:00:00 21.3 16 Nordeste 35 Nordeste 0 -- -- 58
2018-09-07 15:00:00 20.2 17 Nordeste 26 Nordeste 0 -- -- 63
2018-09-07 14:00:00 19.5 14 Este 28 Nordeste 0 -- -- 64
2018-09-07 13:00:00 18.3 15 Este 26 Este 0 -- -- 75
2018-09-07 12:00:00 17.1 18 Este 24 Este 0 -- -- 78
2018-09-07 11:00:00 15.7 8 Este 13 Este 0 -- -- 86
2018-09-07 10:00:00 15 4 Nordeste 7 Nordeste 0 -- -- 90
2018-09-07 09:00:00 13.7 3 Nordeste 7 Norte 0 -- -- 96
2018-09-07 08:00:00 12.7 0 Calma 4 Nordeste 0 -- -- 98
2018-09-07 07:00:00 12.6 6 Sudeste 10 Sudeste 0 -- -- 97
2018-09-07 06:00:00 11.9 6 Este 9 Este 0 -- -- 97
2018-09-07 05:00:00 13.6 0 Calma 4 Sudeste 0.2 -- -- 94
2018-09-07 04:00:00 13.9 0 Calma 8 Este 0 -- -- 95
2018-09-07 03:00:00 14.3 6 Este 10 Sudeste 0 -- -- 93
2018-09-07 02:00:00 14.7 4 Este 8 Este 0 -- -- 93
2018-09-07 01:00:00 14.8 5 Nordeste 11 Nordeste 0 -- -- 92
2018-09-07 00:00:00 15 4 Norte 10 Nordeste 0 -- -- 92
2018-09-06 23:00:00 14.9 3 Nordeste 8 Noroeste 0 -- -- 91
2018-09-06 22:00:00 14.8 6 Norte 18 Norte 0.2 -- -- 93
2018-09-06 21:00:00 16.1 8 Norte 21 Norte 0 -- -- 83
2018-09-06 20:00:00 17.8 13 Norte 24 Nordeste 0 -- -- 74
2018-09-06 19:00:00 19.2 18 Nordeste 27 Nordeste 0 -- -- 66
2018-09-06 18:00:00 19.7 15 Norte 27 Norte 0 -- -- 65
2018-09-06 17:00:00 20.4 12 Norte 25 Norte 0 -- -- 63
2018-09-06 16:00:00 19.9 15 Norte 23 Norte 0 -- -- 64
2018-09-06 15:00:00 20.9 10 Nordeste 28 Nordeste 0 -- -- 58
2018-09-06 14:00:00 19 15 Nordeste 21 Nordeste 0 -- -- 71
2018-09-06 13:00:00 20.2 11 Nordeste 20 Este 0 -- -- 65
2018-09-06 12:00:00 19.8 12 Nordeste 19 Nordeste 0 -- -- 68
2018-09-06 11:00:00 17.8 8 Nordeste 16 Nordeste 0 -- -- 75
2018-09-06 10:00:00 16.5 8 Nordeste 12 Nordeste 0 -- -- 83
2018-09-06 09:00:00 14.7 0 Calma 4 Sudeste 0 -- -- 93
2018-09-06 08:00:00 14.2 3 Sudeste 5 Sudeste 0 -- -- 93
2018-09-06 07:00:00 14.4 0 Calma 6 Este 0 -- -- 95
2018-09-06 06:00:00 14.4 4 Nordeste 6 Este 0 -- -- 95
2018-09-06 05:00:00 14.5 3 Nordeste 6 Nordeste 0 -- -- 96
2018-09-06 04:00:00 14.7 0 Calma 8 Sudeste 0 -- -- 96
2018-09-06 03:00:00 14.7 5 Este 9 Este 0 -- -- 96
2018-09-06 02:00:00 15.1 5 Este 12 Este 0 -- -- 96
2018-09-06 01:00:00 15 0 Calma 8 Nordeste 0 -- -- 97
2018-09-06 00:00:00 15 0 Calma -- -- 0 -- -- 97
2018-09-05 23:00:00 14.2 0 Calma -- -- 0 -- -- 98
2018-09-05 22:00:00 14.5 0 Calma 20 Nordeste 0.2 -- -- 96
2018-09-05 21:00:00 15.6 11 Nordeste 16 Este 8.2 -- -- 97
2018-09-05 20:00:00 16.1 7 Nordeste 27 Nordeste 11.2 -- -- 96
2018-09-05 19:00:00 19.4 18 Nordeste 27 Este 0 -- -- 74
2018-09-05 18:00:00 20.2 18 Este 32 Este 0 -- -- 68
2018-09-05 17:00:00 21 10 Nordeste 23 Este 0 -- -- 65
2018-09-05 16:00:00 21.4 14 Este 27 Este 0 -- -- 63
2018-09-05 15:00:00 21.2 18 Este 28 Este 0 -- -- 62
2018-09-05 14:00:00 19.3 10 Este 18 Este 0 -- -- 69
2018-09-05 13:00:00 20.2 12 Este 23 Este 0 -- -- 64
2018-09-05 12:00:00 18.5 13 Nordeste 24 Este 0 -- -- 70
2018-09-05 11:00:00 16.9 8 Este 12 Este 0 -- -- 81
2018-09-05 10:00:00 15.6 4 Nordeste 7 Nordeste 0 -- -- 87
2018-09-05 09:00:00 14.7 0 Calma 7 Norte 0 -- -- 91
2018-09-05 08:00:00 14.6 3 Norte 6 Norte 0 -- -- 93
2018-09-05 07:00:00 14.5 0 Calma 5 Este 0 -- -- 92
2018-09-05 06:00:00 14.1 0 Calma 4 Oeste 0 -- -- 94
2018-09-05 05:00:00 13.1 0 Calma 6 Oeste 0 -- -- 96
2018-09-05 04:00:00 12.8 3 Sudoeste 15 Sudeste 0 -- -- 92
2018-09-05 03:00:00 13.1 9 Sudeste 14 Sudeste 0 -- -- 92
2018-09-05 02:00:00 13.8 10 Este 21 Este 0 -- -- 86
2018-09-05 01:00:00 14 9 Este 10 Este 0 -- -- 87
2018-09-05 00:00:00 15.5 0 Calma 13 Este 0 -- -- 82
2018-09-04 23:00:00 17.1 9 Nordeste 19 Nordeste 0 -- -- 76
2018-09-04 22:00:00 17.6 10 Nordeste 19 Nordeste 0 -- -- 75
2018-09-04 21:00:00 18.7 11 Nordeste 23 Nordeste 0 -- -- 73
2018-09-04 20:00:00 20.3 18 Nordeste 27 Nordeste 0 -- -- 69
2018-09-04 19:00:00 21.8 20 Nordeste 28 Nordeste 0 -- -- 63
2018-09-04 18:00:00 22.6 16 Nordeste 28 Nordeste 0 -- -- 60
2018-09-04 17:00:00 23.3 14 Nordeste 27 Este 0 -- -- 58
2018-09-04 16:00:00 24.2 13 Este 24 Nordeste 0 -- -- 55
2018-09-04 15:00:00 23.3 15 Este 26 Este 0 -- -- 57
2018-09-04 14:00:00 22.1 14 Este 24 Este 0 -- -- 61
2018-09-04 13:00:00 20.9 13 Este 22 Nordeste 0 -- -- 63
2018-09-04 12:00:00 19.6 14 Este 22 Este 0 -- -- 63
2018-09-04 11:00:00 18.3 6 Este 12 Nordeste 0 -- -- 70
2018-09-04 10:00:00 16.2 2 Este 10 Sudoeste 0 -- -- 80
2018-09-04 09:00:00 13.3 2 Sur 8 Oeste 0 -- -- 93
2018-09-04 08:00:00 11.8 4 Sur 15 Sudeste 0 -- -- 94
2018-09-04 07:00:00 12.6 12 Sudeste 15 Sudeste 0 -- -- 91
2018-09-04 06:00:00 13.1 7 Sudeste 12 Sudeste 0 -- -- 88
2018-09-04 05:00:00 13 6 Sudoeste 14 Sudeste 0 -- -- 87
2018-09-04 04:00:00 13.1 4 Sudoeste 16 Sudeste 0 -- -- 89
2018-09-04 03:00:00 13.1 2 Sur 12 Sudeste 0 -- -- 91
2018-09-04 02:00:00 13.1 5 Noroeste 15 Este 1.2 -- -- 87
2018-09-04 01:00:00 13.9 11 Sur 20 Sudoeste 0.2 -- -- 87
2018-09-04 00:00:00 14.1 10 Sudoeste 20 Sudoeste 0 -- -- 84
2018-09-03 23:00:00 14.2 10 Este 28 Nordeste 3.6 -- -- 75
2018-09-03 22:00:00 17.6 8 Este 15 Nordeste 0 -- -- 55
2018-09-03 21:00:00 18.6 13 Nordeste 26 Nordeste 0 -- -- 55
2018-09-03 20:00:00 22.2 21 Nordeste 29 Nordeste 0 -- -- 49
2018-09-03 19:00:00 24.6 18 Nordeste 30 Este 0 -- -- 41
2018-09-03 18:00:00 25.9 23 Nordeste 31 Nordeste 0 -- -- 37
2018-09-03 17:00:00 26.6 15 Nordeste 30 Nordeste 0 -- -- 35
2018-09-03 16:00:00 27.6 19 Nordeste 32 Nordeste 0 -- -- 31
2018-09-03 15:00:00 26.5 17 Nordeste 29 Este 0 -- -- 33
2018-09-03 14:00:00 25.3 15 Este 29 Este 0 -- -- 32
2018-09-03 13:00:00 23.2 13 Nordeste 23 Nordeste 0 -- -- 39
2018-09-03 12:00:00 23 10 Este 27 Este 0 -- -- 46
2018-09-03 11:00:00 21.9 15 Este 28 Este 0 -- -- 41
2018-09-03 10:00:00 19.4 9 Sudeste 19 Sudeste 0 -- -- 57
2018-09-03 09:00:00 14.1 4 Sudoeste 11 Sudeste 0 -- -- 83
2018-09-03 08:00:00 12.6 4 Sur 14 Sudoeste 0 -- -- 87
2018-09-03 07:00:00 11.6 3 Sudoeste 9 Sudeste 0 -- -- 87
2018-09-03 06:00:00 12.9 5 Sudoeste 10 Sur 0 -- -- 84
2018-09-03 05:00:00 13.3 6 Sudoeste 10 Sudoeste 0 -- -- 83
2018-09-03 04:00:00 14.5 4 Noroeste 9 Sur 0 -- -- 77
2018-09-03 03:00:00 14.8 5 Sudoeste 12 Sudoeste 0 -- -- 75
2018-09-03 02:00:00 15.5 3 Sur 10 Sudoeste 0 -- -- 70
2018-09-03 01:00:00 18.2 5 Sur 19 Este 0 -- -- 62
2018-09-03 00:00:00 19.2 10 Sudeste 19 Sudeste 0 -- -- 61
2018-09-02 23:00:00 20.9 13 Sudeste 19 Sudeste 0 -- -- 56
2018-09-02 22:00:00 22.1 14 Sudeste 24 Este 0 -- -- 53
2018-09-02 21:00:00 24.3 13 Este 24 Nordeste 0 -- -- 48
2018-09-02 20:00:00 28.5 22 Este 30 Este 0 -- -- 37
2018-09-02 19:00:00 31.1 11 Nordeste 19 Nordeste 0 -- -- 30
2018-09-02 18:00:00 32 5 Nordeste 20 Nordeste 0 -- -- 30
2018-09-02 17:00:00 31.8 11 Nordeste 20 Norte 0 -- -- 29
2018-09-02 16:00:00 31.5 8 Nordeste 19 Nordeste 0 -- -- 31
2018-09-02 15:00:00 30.2 10 Este 19 Nordeste 0 -- -- 34
2018-09-02 14:00:00 29 7 Sur 26 Este 0 -- -- 36
2018-09-02 13:00:00 27.2 5 Sudeste 13 Este 0 -- -- 41
2018-09-02 12:00:00 22.8 6 Norte 13 Norte 0 -- -- 57
2018-09-02 11:00:00 20 3 Norte 8 Noroeste 0 -- -- 67
2018-09-02 10:00:00 17.2 0 Calma 4 Sudoeste 0 -- -- 76
2018-09-02 09:00:00 13.8 0 Calma 5 Sudoeste 0 -- -- 91
2018-09-02 08:00:00 11 4 Sudoeste 10 Sur 0 -- -- 94
2018-09-02 07:00:00 11.3 2 Sudoeste 10 Sur 0 -- -- 93
2018-09-02 06:00:00 11.7 8 Sudoeste 10 Sudoeste 0 -- -- 93
2018-09-02 05:00:00 12.1 4 Sudoeste 8 Sudoeste 0 -- -- 92
2018-09-02 04:00:00 12.6 3 Sudoeste 11 Sur 0 -- -- 90
2018-09-02 03:00:00 13.4 4 Sudoeste 10 Sudoeste 0 -- -- 89
2018-09-02 02:00:00 14.1 6 Oeste 12 Sudeste 0 -- -- 88
2018-09-02 01:00:00 14.7 0 Calma 11 Sur 0 -- -- 84
2018-09-02 00:00:00 17.1 9 Sudeste 13 Sudeste 0 -- -- 75
2018-09-01 23:00:00 18.4 9 Sudeste 21 Este 0 -- -- 75
2018-09-01 22:00:00 19.8 11 Sudeste 22 Este 0 -- -- 70
2018-09-01 21:00:00 21.7 15 Este 26 Nordeste 0 -- -- 62
2018-09-01 20:00:00 25.1 18 Este 27 Nordeste 0 -- -- 51
2018-09-01 19:00:00 27.4 17 Este 26 Este 0 -- -- 44
2018-09-01 18:00:00 28.4 13 Nordeste 28 Nordeste 0 -- -- 39
2018-09-01 17:00:00 28 12 Nordeste 26 Nordeste 0 -- -- 39
2018-09-01 16:00:00 28 12 Este 26 Nordeste 0 -- -- 39
2018-09-01 15:00:00 26.9 15 Nordeste 32 Este 0 -- -- 40
2018-09-01 14:00:00 25.8 13 Nordeste 22 Nordeste 0 -- -- 44
2018-09-01 13:00:00 23.8 11 Nordeste 21 Nordeste 0 -- -- 47
2018-09-01 12:00:00 21.6 10 Este 24 Este 0 -- -- 59
2018-09-01 11:00:00 18.9 5 Este 17 Nordeste 0 -- -- 74
2018-09-01 10:00:00 16 4 Sudeste 9 Este 0 -- -- 89
2018-09-01 09:00:00 12.4 6 Sudoeste 10 Sudoeste 0 -- -- 100
2018-09-01 08:00:00 9.7 0 Calma 4 Oeste 0 -- -- 98
2018-09-01 07:00:00 10.4 0 Calma 4 Sudeste 0 -- -- 99
2018-09-01 06:00:00 11.5 0 Calma 9 Oeste 0 -- -- 97
2018-09-01 05:00:00 11.6 0 Calma 13 Sudeste 0 -- -- 94
2018-09-01 04:00:00 13.1 4 Sudoeste 12 Sudeste 0 -- -- 94
2018-09-01 03:00:00 14.5 8 Sudeste 17 Este 0 -- -- 93
2018-09-01 02:00:00 14.6 9 Sudeste 19 Sudeste 0 -- -- 92
2018-09-01 01:00:00 14.9 10 Sudeste 17 Sudeste 0 -- -- 91
2018-09-01 00:00:00 15.5 10 Sudeste 18 Sudeste 0 -- -- 86
2018-08-31 23:00:00 16.4 14 Este 21 Sudeste 0 -- -- 83
2018-08-31 22:00:00 17.6 13 Este 23 Este 0 -- -- 76
2018-08-31 21:00:00 19 16 Este 26 Nordeste 0 -- -- 71
2018-08-31 20:00:00 22.1 16 Este 27 Este 0 -- -- 60
2018-08-31 19:00:00 24.1 19 Este 29 Este 0 -- -- 52
2018-08-31 18:00:00 25.9 10 Nordeste 23 Norte 0 -- -- 46
2018-08-31 17:00:00 25.9 11 Nordeste 27 Norte 0 -- -- 46
2018-08-31 16:00:00 25.6 10 Nordeste 22 Nordeste 0 -- -- 45
2018-08-31 15:00:00 24.5 10 Nordeste 22 Nordeste 0 -- -- 47
2018-08-31 14:00:00 23.8 10 Este 21 Este 0 -- -- 49
2018-08-31 13:00:00 23.1 8 Este 19 Este 0 -- -- 48
2018-08-31 12:00:00 21 6 Nordeste 14 Norte 0 -- -- 54
2018-08-31 11:00:00 18.6 6 Nordeste 13 Nordeste 0 -- -- 61
2018-08-31 10:00:00 15.9 5 Norte 9 Nordeste 0 -- -- 75
2018-08-31 09:00:00 12.5 5 Oeste 6 Oeste 0 -- -- 91
2018-08-31 08:00:00 9.1 4 Sudoeste 8 Oeste 0 -- -- 97
2018-08-31 07:00:00 9 0 Calma 5 Oeste 0 -- -- 97
2018-08-31 06:00:00 9.2 0 Calma 4 Oeste 0 -- -- 93
2018-08-31 05:00:00 11.2 3 Oeste 14 Sur 0 -- -- 91
2018-08-31 04:00:00 11 4 Sudoeste 5 Sudoeste 0 -- -- 92
2018-08-31 03:00:00 12.3 0 Calma 14 Sudeste 0 -- -- 89
2018-08-31 02:00:00 13.8 9 Sudeste 16 Sudeste 0 -- -- 81
2018-08-31 01:00:00 14.3 12 Este 17 Este 0 -- -- 81
2018-08-31 00:00:00 15.3 9 Sudeste 20 Este 0 -- -- 82
2018-08-30 23:00:00 16.1 14 Sudeste 20 Sudeste 0 -- -- 79
2018-08-30 22:00:00 17 10 Este 16 Este 0 -- -- 75
2018-08-30 21:00:00 18.9 10 Este 23 Nordeste 0 -- -- 70
2018-08-30 20:00:00 21.7 14 Nordeste 24 Nordeste 0 -- -- 60
2018-08-30 19:00:00 23.9 17 Nordeste 28 Este 0 -- -- 53
2018-08-30 18:00:00 25.1 9 Norte 31 Norte 0 -- -- 50
2018-08-30 17:00:00 26 12 Nordeste 23 Nordeste 0 -- -- 48
2018-08-30 16:00:00 25.2 6 Nordeste 17 Nordeste 0 -- -- 50
2018-08-30 15:00:00 24.6 7 Este 21 Nordeste 0 -- -- 55
2018-08-30 14:00:00 22.9 9 Nordeste 21 Nordeste 0 -- -- 57
2018-08-30 13:00:00 21.4 9 Este 21 Nordeste 0 -- -- 60
2018-08-30 12:00:00 20.1 7 Este 17 Nordeste 0 -- -- 65
2018-08-30 11:00:00 17 3 Nordeste 18 Este 0 -- -- 79
2018-08-30 10:00:00 16 0 Calma 5 Este 0 -- -- 83
2018-08-30 09:00:00 13.5 2 Oeste 9 Oeste 0 -- -- 93
2018-08-30 08:00:00 10.8 4 Sudoeste 6 Sudoeste 0 -- -- 98
2018-08-30 07:00:00 11.7 0 Calma 15 Sudeste 0 -- -- 93
2018-08-30 06:00:00 12.8 9 Sudeste 17 Sudeste 0 -- -- 91
2018-08-30 05:00:00 13 12 Sudeste 17 Sudeste 0 -- -- 90
2018-08-30 04:00:00 13 13 Sudeste 16 Sudeste 0 -- -- 91
2018-08-30 03:00:00 13 5 Sudeste 14 Sudeste 0 -- -- 89
2018-08-30 02:00:00 13.1 8 Este 13 Este 0 -- -- 87
2018-08-30 01:00:00 13.5 6 Este 19 Este 0 -- -- 85
2018-08-30 00:00:00 14.1 5 Este 13 Nordeste 0 -- -- 83
2018-08-29 23:00:00 16.2 6 Este 20 Este 0 -- -- 76
2018-08-29 22:00:00 16.6 7 Nordeste 17 Este 0 -- -- 80
2018-08-29 21:00:00 17.5 10 Nordeste 27 Este 0 -- -- 79
2018-08-29 20:00:00 19 17 Este 33 Este 0 -- -- 75
2018-08-29 19:00:00 21.1 21 Este 34 Este 0 -- -- 70
2018-08-29 18:00:00 23.1 18 Nordeste 28 Este 0 -- -- 61
2018-08-29 17:00:00 24.6 17 Nordeste 27 Nordeste 0 -- -- 56
2018-08-29 16:00:00 25.3 12 Nordeste 28 Norte 0 -- -- 50
2018-08-29 15:00:00 25.6 13 Nordeste 24 Nordeste 0 -- -- 49
2018-08-29 14:00:00 23.9 10 Nordeste 20 Nordeste 0 -- -- 56
2018-08-29 13:00:00 23 12 Este 20 Este 0 -- -- 61
2018-08-29 12:00:00 21.3 9 Este 24 Este 0 -- -- 67
2018-08-29 11:00:00 20.3 6 Sudeste 14 Este 0 -- -- 71
2018-08-29 10:00:00 18.4 9 Este 14 Este 0 -- -- 80
2018-08-29 09:00:00 14.8 3 Oeste 8 Oeste 0 -- -- 89
2018-08-29 08:00:00 12.3 0 Calma 6 Sudeste 0 -- -- 98
2018-08-29 07:00:00 12.5 3 Sudoeste 8 Sudoeste 0 -- -- 92
2018-08-29 06:00:00 13.6 5 Sudoeste 10 Sudeste 0 -- -- 90
2018-08-29 05:00:00 14.2 5 Sur 10 Sur 0 -- -- 89
2018-08-29 04:00:00 15.2 2 Sudoeste 20 Este 0 -- -- 82
2018-08-29 03:00:00 13.3 5 Oeste 9 Sudoeste 0 -- -- 83
2018-08-29 02:00:00 13.1 2 Sudoeste 6 Oeste 0 -- -- 83
2018-08-29 01:00:00 13.8 3 Sudoeste 5 Sudoeste 0 -- -- 78
2018-08-29 00:00:00 14.8 0 Calma -- -- 0 -- -- 74
2018-08-28 23:00:00 17.1 0 Calma 8 Sudoeste 0 -- -- 66
2018-08-28 22:00:00 19.6 3 Sudoeste 8 Oeste 0 -- -- 58
2018-08-28 21:00:00 22.1 4 Noroeste 32 Noroeste 0 -- -- 51
2018-08-28 20:00:00 26.7 18 Noroeste 37 Sudoeste 0 -- -- 47
2018-08-28 19:00:00 31.9 25 Sudoeste 40 Sudoeste 0 -- -- 16
2018-08-28 18:00:00 32.8 24 Sudoeste 41 Sudoeste 0 -- -- 19
2018-08-28 17:00:00 33 20 Sudoeste 45 Sudoeste 0 -- -- 22
2018-08-28 16:00:00 33.9 15 Sudoeste 34 Oeste 0 -- -- 23
2018-08-28 15:00:00 31.5 17 Sudeste 39 Este 0 -- -- 39
2018-08-28 14:00:00 29.4 22 Este 36 Sudeste 0 -- -- 49
2018-08-28 13:00:00 27.7 21 Este 32 Este 0 -- -- 55
2018-08-28 12:00:00 25.5 19 Este 30 Este 0 -- -- 65
2018-08-28 11:00:00 23.5 17 Este 33 Este 0 -- -- 70
2018-08-28 10:00:00 21.2 24 Este 36 Sudeste 0 -- -- 78
2018-08-28 09:00:00 18.6 9 Sudeste 20 Este 0 -- -- 84
2018-08-28 08:00:00 13.3 0 Calma 8 Nordeste 0 -- -- 94
2018-08-28 07:00:00 13.4 3 Sur 10 Sudoeste 0 -- -- 94
2018-08-28 06:00:00 13.4 3 Sudoeste 7 Sudoeste 0 -- -- 94
2018-08-28 05:00:00 13.7 3 Sur 6 Sudoeste 0 -- -- 92
2018-08-28 04:00:00 15 2 Sudoeste 7 Sudoeste 0 -- -- 91
2018-08-28 03:00:00 15.6 0 Calma 7 Sudoeste 0 -- -- 88
2018-08-28 02:00:00 18 4 Sur 8 Sur 0 -- -- 80
2018-08-28 01:00:00 17.7 2 Sur 5 Sudeste 0 -- -- 81
2018-08-28 00:00:00 19.3 0 Calma 10 Sudoeste 0 -- -- 75
2018-08-27 23:00:00 21.3 5 Sur 9 Sudoeste 0 -- -- 69
2018-08-27 22:00:00 22.9 4 Sudoeste 20 Este 0 -- -- 63
2018-08-27 21:00:00 26.2 14 Este 22 Este 0 -- -- 48
2018-08-27 20:00:00 29.7 13 Sudeste 23 Este 0 -- -- 34
2018-08-27 19:00:00 30.9 18 Este 25 Este 0 -- -- 32
2018-08-27 18:00:00 31.8 13 Este 25 Este 0 -- -- 31
2018-08-27 17:00:00 31.5 9 Nordeste 25 Este 0 -- -- 32
2018-08-27 16:00:00 31.2 7 Sudeste 22 Sudeste 0 -- -- 32
2018-08-27 15:00:00 29.8 9 Este 24 Este 0 -- -- 35
2018-08-27 14:00:00 28.6 5 Este 15 Este 0 -- -- 37
2018-08-27 13:00:00 26.9 6 Sudoeste 18 Nordeste 0 -- -- 41
2018-08-27 12:00:00 24.6 6 Este 13 Este 0 -- -- 49
2018-08-27 11:00:00 20.9 5 Norte 10 Norte 0 -- -- 65
2018-08-27 10:00:00 18.1 3 Noroeste 6 Sudeste 0 -- -- 77
2018-08-27 09:00:00 14.2 3 Sur 6 Sudoeste 0 -- -- 92
2018-08-27 08:00:00 10.9 0 Calma 5 Sudoeste 0 -- -- 94
2018-08-27 07:00:00 11.6 3 Sudoeste 10 Sur 0 -- -- 95
2018-08-27 06:00:00 11.7 0 Calma 4 Sudoeste 0 -- -- 95
2018-08-27 05:00:00 12.2 0 Calma 4 Sudoeste 0 -- -- 93
2018-08-27 04:00:00 13 0 Calma 5 Sudeste 0 -- -- 94
2018-08-27 03:00:00 14.1 2 Oeste 14 Sudoeste 0 -- -- 90
2018-08-27 02:00:00 14.8 8 Sudoeste 10 Sudoeste 0 -- -- 89
2018-08-27 01:00:00 15.6 5 Sudoeste 15 Sudeste 0 -- -- 85
2018-08-27 00:00:00 17.4 3 Oeste 15 Sudeste 0 -- -- 78
2018-08-26 23:00:00 18.7 6 Sudeste 14 Este 0 -- -- 73
2018-08-26 22:00:00 19.8 3 Sur 22 Este 0 -- -- 68
2018-08-26 21:00:00 22.5 17 Este 28 Este 0 -- -- 60
2018-08-26 20:00:00 28.5 3 Sudoeste 20 Este 0 -- -- 37
2018-08-26 19:00:00 29 7 Noroeste 19 Oeste 0 -- -- 30
2018-08-26 18:00:00 29.2 10 Noroeste 23 Oeste 0 -- -- 30
2018-08-26 17:00:00 29.3 13 Oeste 24 Oeste 0 -- -- 30
2018-08-26 16:00:00 27.5 5 Este 18 Norte 0 -- -- 39
2018-08-26 15:00:00 25.9 9 Nordeste 20 Nordeste 0 -- -- 43
2018-08-26 14:00:00 24.1 7 Norte 19 Este 0 -- -- 48
2018-08-26 13:00:00 21.5 7 Norte 13 Noroeste 0 -- -- 54
2018-08-26 12:00:00 19.6 6 Noroeste 13 Nordeste 0 -- -- 62
2018-08-26 11:00:00 17 4 Noroeste 11 Oeste 0 -- -- 69
2018-08-26 10:00:00 14.6 3 Oeste 9 Noroeste 0 -- -- 81
2018-08-26 09:00:00 11.2 0 Calma 8 Sur 0 -- -- 94
2018-08-26 08:00:00 8 0 Calma 5 Sudoeste 0 -- -- 99
2018-08-26 07:00:00 7.5 0 Calma 3 Norte 0 -- -- 97
2018-08-26 06:00:00 7.9 2 Sudoeste 4 Sudoeste 0 -- -- 96
2018-08-26 05:00:00 8.7 0 Calma 4 Sur 0 -- -- 94
2018-08-26 04:00:00 10.2 2 Sudoeste 12 Sudeste 0 -- -- 90
2018-08-26 03:00:00 11.7 10 Sudeste 15 Sudeste 0 -- -- 89
2018-08-26 02:00:00 11.7 8 Sudeste 13 Sudeste 0 -- -- 91
2018-08-26 01:00:00 12 4 Sudeste 17 Este 0 -- -- 87
2018-08-26 00:00:00 12.3 12 Sudeste 18 Sudeste 0 -- -- 87
2018-08-25 23:00:00 13.3 11 Este 18 Sudeste 0 -- -- 83
2018-08-25 22:00:00 14.1 12 Este 17 Este 0 -- -- 79
2018-08-25 21:00:00 15.9 8 Nordeste 23 Nordeste 0 -- -- 69
2018-08-25 20:00:00 19.2 12 Norte 21 Norte 0 -- -- 57
2018-08-25 19:00:00 20.3 11 Norte 25 Norte 0 -- -- 54
2018-08-25 18:00:00 21.5 15 Norte 26 Norte 0 -- -- 51
2018-08-25 17:00:00 22.3 12 Norte 27 Norte 0 -- -- 44
2018-08-25 16:00:00 22.4 11 Norte 27 Norte 0 -- -- 45
2018-08-25 15:00:00 21.6 14 Nordeste 40 Noroeste 0 -- -- 47
2018-08-25 14:00:00 21.1 11 Nordeste 22 Nordeste 0 -- -- 48
2018-08-25 13:00:00 19.3 10 Este 25 Nordeste 0 -- -- 53
2018-08-25 12:00:00 18.5 9 Nordeste 22 Nordeste 0 -- -- 56
2018-08-25 11:00:00 16.3 10 Nordeste 19 Nordeste 0 -- -- 65
2018-08-25 10:00:00 16.1 6 Norte 12 Nordeste 0 -- -- 72
2018-08-25 09:00:00 14.5 0 Calma 4 Norte 0 -- -- 88
2018-08-25 08:00:00 11.9 2 Sudoeste 8 Norte 0 -- -- 96
2018-08-25 07:00:00 12.8 2 Nordeste 14 Sudeste 0 -- -- 93
2018-08-25 06:00:00 13.1 5 Sudeste 9 Sudeste 0 -- -- 94
2018-08-25 05:00:00 12.1 0 Calma 5 Oeste 0 -- -- 96
2018-08-25 04:00:00 10.9 0 Calma 5 Oeste 0 -- -- 98
2018-08-25 03:00:00 10.7 0 Calma 6 Sudoeste 0 -- -- 94
2018-08-25 02:00:00 11.9 0 Calma 9 Sudeste 0 -- -- 89
2018-08-25 01:00:00 13.6 5 Sudeste 11 Sudeste 0 -- -- 86
2018-08-25 00:00:00 14.7 6 Este 18 Este 0 -- -- 84
2018-08-24 23:00:00 14.3 12 Este 20 Este 0 -- -- 87
2018-08-24 22:00:00 14.8 13 Este 18 Este 0 -- -- 86
2018-08-24 21:00:00 16.2 13 Este 25 Este 0 -- -- 79
2018-08-24 20:00:00 19.1 14 Nordeste 22 Nordeste 0 -- -- 68
2018-08-24 19:00:00 20.7 15 Nordeste 26 Este 0 -- -- 63
2018-08-24 18:00:00 22.3 14 Nordeste 28 Nordeste 0 -- -- 57
2018-08-24 17:00:00 24.3 10 Nordeste 26 Nordeste 0 -- -- 48
2018-08-24 16:00:00 23.4 15 Este 26 Este 0 -- -- 49
2018-08-24 15:00:00 23.5 9 Nordeste 24 Norte 0 -- -- 50
2018-08-24 14:00:00 23.1 10 Nordeste 23 Nordeste 0 -- -- 53
2018-08-24 13:00:00 20.2 8 Norte 22 Nordeste 0 -- -- 68
2018-08-24 12:00:00 20.1 8 Nordeste 19 Nordeste 0 -- -- 71
2018-08-24 11:00:00 18 3 Noroeste 7 Norte 0 -- -- 78
2018-08-24 10:00:00 16.4 0 Calma 6 Noroeste 0 -- -- 87
2018-08-24 09:00:00 14.3 3 Sudoeste 7 Sudoeste 0 -- -- 97
2018-08-24 08:00:00 11.8 0 Calma 5 Sudoeste 0 -- -- 100
2018-08-24 07:00:00 11.3 0 Calma 6 Sudoeste 0 -- -- 96
2018-08-24 06:00:00 13.4 5 Sudoeste 14 Sur 0 -- -- 95
2018-08-24 05:00:00 14.6 10 Sur 14 Sur 0 -- -- 94
2018-08-24 04:00:00 15.1 0 Calma 3 Sudoeste 0 -- -- 94
2018-08-24 03:00:00 14.8 0 Calma 4 Oeste 0 -- -- 96
2018-08-24 02:00:00 14.7 0 Calma 14 Este 0 -- -- 92
2018-08-24 01:00:00 15.5 11 Este 16 Sudeste 0 -- -- 92
2018-08-24 00:00:00 15.9 9 Sudeste 19 Este 0 -- -- 90